3VA1 weather

The Meadows Airport
Warrenton, Virginia, United States

Public forecast

Using degrees Fahrenheit for public forecast. Weather courtesy of forecast.io.

Closest aviation weather report (METAR) to The Meadows Airport

Closest report is Warrenton Fauquier Airport, 12.0 nm (22.3 km) SSE. Retrieved 2020/06/04 05:35 UTC (20 minutes ago):

KHWY 040535Z AUTO 00000KT 10SM CLR 20/17 A2980 RMK AO2 T02000166

Closest aviation forecast (TAF) to The Meadows Airport

Closest forecast is Washington Dulles International Airport, 19.1 nm (35.3 km) ENE. Retrieved 2020-06-04 00:30 UTC (5 hours ago):

TAF KIAD 032327Z 0400/0506 27010G18KT P6SM BKN130 FM040100 27008KT P6SM BKN130 FM040900 VRB03KT P6SM BKN130 FM041600 18008KT P6SM SCT050 BKN130 FM041900 18008G16KT P6SM VCTS SCT050CB BKN130 FM042300 19008KT P6SM SCT050 BKN130